createdAt,value
2023-10-29T00:01:48.710Z,10.04
2023-10-29T00:04:53.114Z,10.02
2023-10-29T00:07:57.160Z,10.03
2023-10-29T00:11:01.135Z,10.01
2023-10-29T00:14:05.480Z,10.02
2023-10-29T00:17:09.481Z,10.03
2023-10-29T00:20:13.589Z,10.03
2023-10-29T00:23:17.875Z,10.04
2023-10-29T00:26:21.903Z,10.07
2023-10-29T00:29:26.764Z,10.08
2023-10-29T00:32:34.321Z,10.09
2023-10-29T00:35:38.386Z,10.09
2023-10-29T00:38:42.789Z,10.03
2023-10-29T00:41:46.840Z,9.99
2023-10-29T00:44:51.051Z,9.98
2023-10-29T00:47:55.675Z,9.95
2023-10-29T00:51:00.225Z,9.94
2023-10-29T00:54:05.542Z,9.95
2023-10-29T00:57:09.601Z,9.94
2023-10-29T01:00:19.070Z,9.93
2023-10-29T01:03:23.833Z,9.95
2023-10-29T01:06:29.186Z,9.99
2023-10-29T01:09:34.996Z,10.02
2023-10-29T01:12:39.589Z,10.08
2023-10-29T01:15:43.472Z,10.11
2023-10-29T01:18:47.812Z,10.12
2023-10-29T01:21:51.891Z,10.12
2023-10-29T01:24:55.943Z,10.14
2023-10-29T01:28:01.228Z,10.16
2023-10-29T01:31:06.525Z,10.16
2023-10-29T01:34:10.491Z,10.17
2023-10-29T01:37:14.484Z,10.18
2023-10-29T01:40:18.586Z,10.18
2023-10-29T01:43:22.692Z,10.18
2023-10-29T01:46:26.948Z,10.20
2023-10-29T01:49:31.155Z,10.23
2023-10-29T01:52:38.359Z,10.26
2023-10-29T01:55:42.367Z,10.28
2023-10-29T01:58:46.368Z,10.27
2023-10-29T02:01:51.592Z,10.25
2023-10-29T02:04:55.674Z,10.22
2023-10-29T02:08:00.382Z,10.20
2023-10-29T02:11:04.402Z,10.21
2023-10-29T02:14:09.088Z,10.23
2023-10-29T02:17:14.443Z,10.24
2023-10-29T02:20:18.638Z,10.25
2023-10-29T02:23:22.812Z,10.23
2023-10-29T02:26:26.976Z,10.22
2023-10-29T02:29:31.416Z,10.22
2023-10-29T02:32:35.442Z,10.23
2023-10-29T02:35:39.653Z,10.25
2023-10-29T02:38:44.569Z,10.25
2023-10-29T02:41:50.776Z,10.26
2023-10-29T02:44:55.807Z,10.28
2023-10-29T02:47:59.886Z,10.29
2023-10-29T02:51:04.545Z,10.29
2023-10-29T02:54:08.469Z,10.29
2023-10-29T02:57:14.747Z,10.28
2023-10-29T03:00:18.991Z,10.26
2023-10-29T03:03:23.072Z,10.24
2023-10-29T03:06:27.332Z,10.24
2023-10-29T03:09:31.427Z,10.25
2023-10-29T03:12:35.433Z,10.27
2023-10-29T03:15:39.413Z,10.26
2023-10-29T03:18:43.412Z,10.24
2023-10-29T03:21:49.221Z,10.24
2023-10-29T03:24:53.271Z,10.25
2023-10-29T03:27:57.968Z,10.28
2023-10-29T03:31:03.442Z,10.30
2023-10-29T03:34:09.242Z,10.31
2023-10-29T03:37:13.304Z,10.31
2023-10-29T03:40:17.410Z,10.32
2023-10-29T03:43:21.357Z,10.33
2023-10-29T03:46:25.339Z,10.35
2023-10-29T03:49:29.441Z,10.36
2023-10-29T03:52:33.401Z,10.38
2023-10-29T03:55:38.181Z,10.37
2023-10-29T03:58:42.248Z,10.38
2023-10-29T04:01:46.579Z,10.38
2023-10-29T04:05:05.586Z,10.38
2023-10-29T04:08:13.419Z,10.37
2023-10-29T04:11:17.377Z,10.34
2023-10-29T04:14:21.610Z,10.34
2023-10-29T04:17:25.930Z,10.33
2023-10-29T04:20:30.131Z,10.34
2023-10-29T04:23:34.652Z,10.36
2023-10-29T04:26:38.806Z,10.40
2023-10-29T04:29:42.977Z,10.42
2023-10-29T04:32:47.068Z,10.42
2023-10-29T04:35:51.447Z,10.42
2023-10-29T04:38:55.565Z,10.43
2023-10-29T04:42:00.107Z,10.44
2023-10-29T04:45:05.236Z,10.41
2023-10-29T04:48:09.803Z,10.36
2023-10-29T04:51:13.938Z,10.33
2023-10-29T04:54:17.878Z,10.33
2023-10-29T04:57:22.744Z,10.33
2023-10-29T05:00:27.013Z,10.34
2023-10-29T05:03:31.136Z,10.36
2023-10-29T05:06:35.664Z,10.37
2023-10-29T05:09:39.775Z,10.36
2023-10-29T05:12:43.815Z,10.38
2023-10-29T05:15:47.761Z,10.39
2023-10-29T05:18:51.807Z,10.42
2023-10-29T05:21:55.990Z,10.47
2023-10-29T05:25:00.110Z,10.49
2023-10-29T05:28:04.396Z,10.49
2023-10-29T05:31:08.443Z,10.47
2023-10-29T05:34:12.672Z,10.45
2023-10-29T05:37:16.667Z,10.44
2023-10-29T05:40:20.745Z,10.44
2023-10-29T05:43:24.784Z,10.42
2023-10-29T05:46:28.865Z,10.41
2023-10-29T05:49:32.901Z,10.41
2023-10-29T05:52:37.097Z,10.40
2023-10-29T05:55:41.688Z,10.42
2023-10-29T05:58:45.797Z,10.47
2023-10-29T06:01:49.817Z,10.53
2023-10-29T06:04:53.903Z,10.54
2023-10-29T06:07:58.329Z,10.51
2023-10-29T06:11:04.800Z,10.52
2023-10-29T06:14:09.566Z,10.56
2023-10-29T06:17:25.633Z,10.60
2023-10-29T06:20:31.128Z,10.64
2023-10-29T06:23:38.380Z,10.66
2023-10-29T06:26:42.593Z,10.67
2023-10-29T06:29:46.700Z,10.67
2023-10-29T06:32:51.222Z,10.69
2023-10-29T06:35:59.023Z,10.74
2023-10-29T06:39:03.523Z,10.78
2023-10-29T06:42:07.898Z,10.78
2023-10-29T06:45:12.085Z,10.78
2023-10-29T06:48:16.194Z,10.80
2023-10-29T06:51:22.208Z,10.79
2023-10-29T06:54:26.475Z,10.80
2023-10-29T06:57:30.840Z,10.81
2023-10-29T07:00:34.845Z,10.83
2023-10-29T07:03:39.530Z,10.83
2023-10-29T07:06:44.323Z,10.84
2023-10-29T07:09:48.560Z,10.90
2023-10-29T07:12:54.421Z,10.95
2023-10-29T07:16:01.014Z,10.99
2023-10-29T07:19:05.758Z,11.01
2023-10-29T07:22:09.864Z,11.06
2023-10-29T07:25:13.933Z,11.08
2023-10-29T07:28:19.044Z,11.10
2023-10-29T07:31:23.036Z,11.10
2023-10-29T07:34:27.238Z,11.14
2023-10-29T07:37:31.262Z,11.20
2023-10-29T07:40:37.461Z,11.25
2023-10-29T07:43:41.478Z,11.30
2023-10-29T07:46:45.458Z,11.32
2023-10-29T07:49:49.479Z,11.36
2023-10-29T07:52:53.534Z,11.41
2023-10-29T07:56:11.904Z,11.43
2023-10-29T07:59:16.150Z,11.46
2023-10-29T08:02:20.159Z,11.49
2023-10-29T08:05:24.298Z,11.50
2023-10-29T08:08:28.335Z,11.50
2023-10-29T08:11:32.431Z,11.52
2023-10-29T08:14:36.474Z,11.56
2023-10-29T08:17:41.256Z,11.60
2023-10-29T08:20:45.574Z,11.65
2023-10-29T08:23:50.070Z,11.66
2023-10-29T08:26:54.145Z,11.71
2023-10-29T08:29:58.534Z,11.77
2023-10-29T08:33:02.871Z,11.83
2023-10-29T08:36:07.965Z,11.89
2023-10-29T08:39:12.056Z,11.97
2023-10-29T08:42:16.017Z,12.02
2023-10-29T08:45:31.009Z,12.06
2023-10-29T08:48:42.470Z,12.14
2023-10-29T08:51:46.780Z,12.21
2023-10-29T08:54:51.874Z,12.26
2023-10-29T08:57:55.867Z,12.32
2023-10-29T09:01:00.032Z,12.38
2023-10-29T09:04:05.485Z,12.43
2023-10-29T09:07:09.757Z,12.50
2023-10-29T09:10:13.958Z,12.56
2023-10-29T09:13:20.398Z,12.64
2023-10-29T09:16:24.413Z,12.74
2023-10-29T09:19:29.074Z,12.83
2023-10-29T09:22:33.928Z,12.90
2023-10-29T09:25:37.997Z,12.97
2023-10-29T09:28:43.576Z,13.05
2023-10-29T09:31:47.791Z,13.13
2023-10-29T09:34:52.949Z,13.22
2023-10-29T09:37:56.906Z,13.29
2023-10-29T09:41:01.109Z,13.36
2023-10-29T09:44:11.734Z,13.43
2023-10-29T09:47:20.428Z,13.49
2023-10-29T09:50:25.032Z,13.56
2023-10-29T09:53:30.298Z,13.60
2023-10-29T09:56:35.274Z,13.66
2023-10-29T09:59:39.317Z,13.70
2023-10-29T10:02:58.198Z,13.74
2023-10-29T10:06:03.947Z,13.82
2023-10-29T10:09:08.797Z,13.88
2023-10-29T10:12:15.695Z,13.93
2023-10-29T10:15:21.049Z,13.98
2023-10-29T10:18:25.147Z,14.02
2023-10-29T10:21:43.481Z,14.03
2023-10-29T10:24:49.696Z,14.05
2023-10-29T10:27:57.799Z,14.08
2023-10-29T10:31:14.837Z,14.11
2023-10-29T10:34:20.387Z,14.10
2023-10-29T10:37:26.326Z,14.07
2023-10-29T10:40:32.610Z,14.05
2023-10-29T10:43:37.679Z,14.05
2023-10-29T10:46:52.753Z,14.06
2023-10-29T10:49:57.747Z,14.09
2023-10-29T10:53:02.791Z,14.13
2023-10-29T10:56:09.805Z,14.16
2023-10-29T10:59:14.332Z,14.22
2023-10-29T11:02:19.955Z,14.27
2023-10-29T11:05:31.437Z,14.32
2023-10-29T11:08:36.861Z,14.36
2023-10-29T11:11:48.149Z,14.41
2023-10-29T11:15:17.515Z,14.43
2023-10-29T11:18:33.809Z,14.45
2023-10-29T11:21:43.252Z,14.45
2023-10-29T11:25:06.163Z,14.47
2023-10-29T11:28:28.300Z,14.50
2023-10-29T11:31:32.353Z,14.54
2023-10-29T11:34:36.505Z,14.57
2023-10-29T11:37:40.704Z,14.59
2023-10-29T11:40:44.643Z,14.61
2023-10-29T11:44:20.759Z,14.64
2023-10-29T11:47:25.006Z,14.70
2023-10-29T11:50:29.002Z,14.76
2023-10-29T11:53:33.941Z,14.81
2023-10-29T11:56:39.573Z,14.86
2023-10-29T11:59:57.273Z,14.89
2023-10-29T12:03:01.728Z,14.92
2023-10-29T12:06:06.204Z,14.93
2023-10-29T12:09:26.008Z,14.94
2023-10-29T12:12:30.069Z,14.98
2023-10-29T12:15:34.537Z,15.02
2023-10-29T12:18:40.624Z,15.05
2023-10-29T12:21:53.029Z,15.09
2023-10-29T12:25:04.169Z,15.12
2023-10-29T12:28:12.098Z,15.14
2023-10-29T12:31:37.157Z,15.15
2023-10-29T12:34:52.200Z,15.17
2023-10-29T12:37:57.174Z,15.22
2023-10-29T12:41:06.784Z,15.26
2023-10-29T12:44:17.311Z,15.31
2023-10-29T12:47:23.111Z,15.35
2023-10-29T12:50:27.346Z,15.40
2023-10-29T12:53:32.769Z,15.46
2023-10-29T12:56:50.464Z,15.52
2023-10-29T12:59:54.562Z,15.55
2023-10-29T13:02:58.843Z,15.56
2023-10-29T13:06:03.198Z,15.59
2023-10-29T13:09:09.816Z,15.62
2023-10-29T13:12:13.934Z,15.68
2023-10-29T13:15:19.736Z,15.72
2023-10-29T13:18:23.981Z,15.73
2023-10-29T13:21:28.138Z,15.74
2023-10-29T13:24:33.767Z,15.75
2023-10-29T13:27:38.881Z,15.73
2023-10-29T13:30:43.300Z,15.72
2023-10-29T13:33:49.271Z,15.73
2023-10-29T13:36:53.227Z,15.75
2023-10-29T13:39:57.207Z,15.78
2023-10-29T13:43:01.488Z,15.81
2023-10-29T13:46:06.590Z,15.82
2023-10-29T13:49:11.670Z,15.83
2023-10-29T13:52:15.999Z,15.84
2023-10-29T13:55:24.420Z,15.82
2023-10-29T13:58:28.361Z,15.81
2023-10-29T14:01:32.885Z,15.80
2023-10-29T14:04:36.876Z,15.82
2023-10-29T14:07:40.789Z,15.86
2023-10-29T14:10:44.793Z,15.90
2023-10-29T14:13:51.255Z,15.94
2023-10-29T14:16:55.256Z,15.97
2023-10-29T14:19:59.290Z,15.97
2023-10-29T14:23:05.276Z,15.95
2023-10-29T14:26:09.268Z,15.93
2023-10-29T14:29:14.101Z,15.87
2023-10-29T14:32:18.044Z,15.82
2023-10-29T14:35:22.283Z,15.78
2023-10-29T14:38:28.451Z,15.73
2023-10-29T14:41:32.615Z,15.72
2023-10-29T14:44:37.285Z,15.68
2023-10-29T14:47:41.336Z,15.61
2023-10-29T14:50:45.682Z,15.54
2023-10-29T14:53:49.791Z,15.50
2023-10-29T14:56:53.862Z,15.45
2023-10-29T14:59:58.279Z,15.39
2023-10-29T15:03:02.580Z,15.34
2023-10-29T15:06:11.078Z,15.30
2023-10-29T15:09:16.088Z,15.27
2023-10-29T15:12:20.576Z,15.25
2023-10-29T15:15:29.718Z,15.22
2023-10-29T15:18:34.737Z,15.18
2023-10-29T15:21:38.897Z,15.13
2023-10-29T15:24:42.975Z,15.06
2023-10-29T15:27:47.001Z,14.99
2023-10-29T15:30:51.248Z,14.94
2023-10-29T15:33:56.151Z,14.91
2023-10-29T15:37:00.161Z,14.87
2023-10-29T15:40:05.292Z,14.85
2023-10-29T15:43:09.322Z,14.81
2023-10-29T15:46:13.773Z,14.77
2023-10-29T15:49:17.755Z,14.70
2023-10-29T15:52:22.097Z,14.64
2023-10-29T15:55:26.121Z,14.57
2023-10-29T15:58:30.451Z,14.54
2023-10-29T16:01:36.043Z,14.50
2023-10-29T16:04:40.211Z,14.51
2023-10-29T16:07:44.426Z,14.49
2023-10-29T16:10:48.460Z,14.47
2023-10-29T16:13:52.556Z,14.44
2023-10-29T16:16:57.016Z,14.40
2023-10-29T16:20:01.175Z,14.35
2023-10-29T16:23:05.412Z,14.31
2023-10-29T16:26:10.900Z,14.26
2023-10-29T16:29:16.112Z,14.23
2023-10-29T16:32:20.874Z,14.20
2023-10-29T16:35:25.474Z,14.15
2023-10-29T16:38:31.169Z,14.10
2023-10-29T16:41:35.850Z,14.02
2023-10-29T16:44:40.576Z,13.93
2023-10-29T16:47:45.140Z,13.87
2023-10-29T16:51:02.747Z,13.83
2023-10-29T16:54:08.211Z,13.79
2023-10-29T16:57:13.809Z,13.78
2023-10-29T17:00:19.015Z,13.76
2023-10-29T17:03:23.720Z,13.73
2023-10-29T17:06:29.349Z,13.68
2023-10-29T17:09:34.136Z,13.66
2023-10-29T17:12:39.502Z,13.63
2023-10-29T17:15:44.303Z,13.62
2023-10-29T17:18:49.304Z,13.59
2023-10-29T17:21:54.065Z,13.56
2023-10-29T17:24:58.834Z,13.50
2023-10-29T17:28:03.858Z,13.44
2023-10-29T17:31:13.048Z,13.39
2023-10-29T17:34:18.578Z,13.35
2023-10-29T17:37:23.195Z,13.30
2023-10-29T17:40:27.942Z,13.26
2023-10-29T17:43:32.708Z,13.23
2023-10-29T17:46:37.169Z,13.19
2023-10-29T17:49:41.973Z,13.15
2023-10-29T17:52:46.638Z,13.09
2023-10-29T17:55:53.072Z,13.04
2023-10-29T17:58:58.084Z,13.01
2023-10-29T18:02:02.698Z,12.97
2023-10-29T18:05:10.319Z,12.95
2023-10-29T18:08:14.762Z,12.94
2023-10-29T18:11:19.501Z,12.92
2023-10-29T18:14:25.460Z,12.90
2023-10-29T18:17:29.764Z,12.88
2023-10-29T18:20:35.300Z,12.87
2023-10-29T18:23:40.061Z,12.87
2023-10-29T18:26:44.943Z,12.86
2023-10-29T18:29:50.317Z,12.85
2023-10-29T18:32:56.862Z,12.84
2023-10-29T18:36:11.807Z,12.85
2023-10-29T18:39:16.272Z,12.87
2023-10-29T18:42:21.235Z,12.88
2023-10-29T18:45:26.024Z,12.87
2023-10-29T18:48:30.761Z,12.85
2023-10-29T18:51:35.689Z,12.82
2023-10-29T18:54:40.493Z,12.83
2023-10-29T18:57:45.136Z,12.86
2023-10-29T19:00:51.489Z,12.91
2023-10-29T19:03:59.334Z,12.93
2023-10-29T19:07:04.801Z,12.92
2023-10-29T19:10:09.804Z,12.89
2023-10-29T19:13:14.613Z,12.90
2023-10-29T19:16:19.295Z,12.93
2023-10-29T19:19:24.029Z,12.96
2023-10-29T19:22:29.520Z,13.00
2023-10-29T19:25:36.517Z,13.03
2023-10-29T19:28:41.314Z,13.06
2023-10-29T19:31:46.069Z,13.08
2023-10-29T19:34:52.250Z,13.08
2023-10-29T19:37:56.913Z,13.09
2023-10-29T19:41:01.897Z,13.13
2023-10-29T19:44:07.109Z,13.16
2023-10-29T19:47:11.932Z,13.18
2023-10-29T19:50:17.233Z,13.18
2023-10-29T19:53:22.216Z,13.17
2023-10-29T19:56:28.032Z,13.17
2023-10-29T19:59:32.998Z,13.17
2023-10-29T20:02:37.673Z,13.18
2023-10-29T20:05:42.447Z,13.17
2023-10-29T20:08:48.483Z,13.16
2023-10-29T20:11:53.196Z,13.14
2023-10-29T20:14:57.773Z,13.11
2023-10-29T20:18:03.359Z,13.08
2023-10-29T20:21:19.061Z,13.05
2023-10-29T20:24:25.029Z,13.02
2023-10-29T20:27:29.412Z,12.97
2023-10-29T20:30:33.863Z,12.93
2023-10-29T20:33:39.173Z,12.87
2023-10-29T20:36:43.936Z,12.81
2023-10-29T20:39:48.212Z,12.78
2023-10-29T20:42:52.909Z,12.72
2023-10-29T20:45:57.504Z,12.68
2023-10-29T20:49:01.640Z,12.63
2023-10-29T20:52:06.137Z,12.59
2023-10-29T20:55:10.555Z,12.55
2023-10-29T20:58:15.047Z,12.50
2023-10-29T21:01:19.097Z,12.47
2023-10-29T21:04:23.239Z,12.43
2023-10-29T21:07:27.281Z,12.39
2023-10-29T21:10:32.239Z,12.38
2023-10-29T21:13:36.353Z,12.39
2023-10-29T21:16:40.339Z,12.40
2023-10-29T21:19:44.584Z,12.41
2023-10-29T21:22:48.527Z,12.41
2023-10-29T21:25:56.710Z,12.44
2023-10-29T21:29:01.035Z,12.46
2023-10-29T21:32:05.137Z,12.47
2023-10-29T21:35:09.168Z,12.47
2023-10-29T21:38:13.213Z,12.45
2023-10-29T21:41:17.239Z,12.42
2023-10-29T21:44:21.728Z,12.41
2023-10-29T21:47:26.161Z,12.39
2023-10-29T21:50:30.169Z,12.37
2023-10-29T21:53:35.298Z,12.36
2023-10-29T21:56:39.305Z,12.33
2023-10-29T21:59:43.318Z,12.30
2023-10-29T22:02:47.402Z,12.28
2023-10-29T22:06:05.150Z,12.26
2023-10-29T22:09:09.846Z,12.25
2023-10-29T22:12:13.864Z,12.21
2023-10-29T22:15:18.980Z,12.17
2023-10-29T22:18:23.067Z,12.14
2023-10-29T22:21:27.129Z,12.10
2023-10-29T22:24:31.164Z,12.08
2023-10-29T22:27:35.412Z,12.06
2023-10-29T22:30:39.630Z,12.03
2023-10-29T22:33:44.798Z,12.01
2023-10-29T22:36:48.738Z,11.98
2023-10-29T22:39:52.756Z,11.94
2023-10-29T22:42:56.852Z,11.91
2023-10-29T22:46:02.010Z,11.88
2023-10-29T22:49:06.209Z,11.86
2023-10-29T22:52:10.198Z,11.83
2023-10-29T22:55:16.732Z,11.81
2023-10-29T22:58:20.714Z,11.79
2023-10-29T23:01:27.903Z,11.79
2023-10-29T23:04:32.049Z,11.79
2023-10-29T23:07:36.289Z,11.77
2023-10-29T23:10:40.518Z,11.79
2023-10-29T23:13:45.200Z,11.79
2023-10-29T23:16:49.264Z,11.78
2023-10-29T23:19:53.771Z,11.78
2023-10-29T23:22:57.791Z,11.75
2023-10-29T23:26:02.303Z,11.73
2023-10-29T23:29:06.557Z,11.73
2023-10-29T23:32:10.646Z,11.71
2023-10-29T23:35:15.002Z,11.66
2023-10-29T23:38:19.729Z,11.62
2023-10-29T23:41:23.692Z,11.59
2023-10-29T23:44:27.697Z,11.59
2023-10-29T23:47:32.197Z,11.58
2023-10-29T23:50:36.207Z,11.58
2023-10-29T23:53:40.388Z,11.59
2023-10-29T23:56:44.443Z,11.56
2023-10-29T23:59:48.588Z,11.55
